sensor_id;sensor_type;location;lat;lon;timestamp;P1;durP1;ratioP1;P2;durP2;ratioP2
8610;SDS011;4343;53.648;10.098;2022-08-19T00:01:20;9.63;;;8.80;;
8610;SDS011;4343;53.648;10.098;2022-08-19T00:03:46;9.30;;;8.50;;
8610;SDS011;4343;53.648;10.098;2022-08-19T00:06:11;8.13;;;7.63;;
8610;SDS011;4343;53.648;10.098;2022-08-19T00:08:37;10.40;;;9.35;;
8610;SDS011;4343;53.648;10.098;2022-08-19T00:11:03;9.43;;;8.73;;
8610;SDS011;4343;53.648;10.098;2022-08-19T00:13:28;10.57;;;9.38;;
8610;SDS011;4343;53.648;10.098;2022-08-19T00:15:55;9.88;;;9.10;;
8610;SDS011;4343;53.648;10.098;2022-08-19T00:18:21;9.38;;;8.68;;
8610;SDS011;4343;53.648;10.098;2022-08-19T00:20:46;9.75;;;8.95;;
8610;SDS011;4343;53.648;10.098;2022-08-19T00:23:12;10.65;;;9.65;;
8610;SDS011;4343;53.648;10.098;2022-08-19T00:25:37;9.63;;;8.90;;
8610;SDS011;4343;53.648;10.098;2022-08-19T00:28:03;10.90;;;9.77;;
8610;SDS011;4343;53.648;10.098;2022-08-19T00:30:29;11.27;;;10.30;;
8610;SDS011;4343;53.648;10.098;2022-08-19T00:32:55;10.63;;;9.75;;
8610;SDS011;4343;53.648;10.098;2022-08-19T00:35:21;11.32;;;10.35;;
8610;SDS011;4343;53.648;10.098;2022-08-19T00:37:47;10.40;;;9.50;;
8610;SDS011;4343;53.648;10.098;2022-08-19T00:40:14;10.88;;;9.73;;
8610;SDS011;4343;53.648;10.098;2022-08-19T00:42:41;10.60;;;9.65;;
8610;SDS011;4343;53.648;10.098;2022-08-19T00:45:14;11.85;;;10.70;;
8610;SDS011;4343;53.648;10.098;2022-08-19T00:47:43;10.82;;;9.30;;
8610;SDS011;4343;53.648;10.098;2022-08-19T00:50:10;10.48;;;9.63;;
8610;SDS011;4343;53.648;10.098;2022-08-19T00:52:40;11.30;;;10.30;;
8610;SDS011;4343;53.648;10.098;2022-08-19T00:55:10;11.27;;;10.27;;
8610;SDS011;4343;53.648;10.098;2022-08-19T00:57:41;12.68;;;10.65;;
8610;SDS011;4343;53.648;10.098;2022-08-19T01:00:12;12.40;;;11.10;;
8610;SDS011;4343;53.648;10.098;2022-08-19T01:02:41;11.23;;;10.15;;
8610;SDS011;4343;53.648;10.098;2022-08-19T01:05:08;13.80;;;11.07;;
8610;SDS011;4343;53.648;10.098;2022-08-19T01:07:37;11.95;;;10.75;;
8610;SDS011;4343;53.648;10.098;2022-08-19T01:10:08;12.15;;;11.02;;
8610;SDS011;4343;53.648;10.098;2022-08-19T01:12:37;13.80;;;10.77;;
8610;SDS011;4343;53.648;10.098;2022-08-19T01:15:05;11.35;;;10.25;;
8610;SDS011;4343;53.648;10.098;2022-08-19T01:17:33;11.88;;;10.77;;
8610;SDS011;4343;53.648;10.098;2022-08-19T01:20:01;11.95;;;10.73;;
8610;SDS011;4343;53.648;10.098;2022-08-19T01:25:01;11.55;;;10.60;;
8610;SDS011;4343;53.648;10.098;2022-08-19T01:27:27;11.65;;;10.50;;
8610;SDS011;4343;53.648;10.098;2022-08-19T01:30:05;11.48;;;10.10;;
8610;SDS011;4343;53.648;10.098;2022-08-19T01:32:32;13.18;;;11.70;;
8610;SDS011;4343;53.648;10.098;2022-08-19T01:34:58;12.80;;;11.07;;
8610;SDS011;4343;53.648;10.098;2022-08-19T01:37:26;12.65;;;11.45;;
8610;SDS011;4343;53.648;10.098;2022-08-19T01:39:52;11.98;;;10.95;;
8610;SDS011;4343;53.648;10.098;2022-08-19T01:42:18;10.95;;;10.07;;
8610;SDS011;4343;53.648;10.098;2022-08-19T01:44:44;12.70;;;11.15;;
8610;SDS011;4343;53.648;10.098;2022-08-19T01:47:10;12.32;;;11.13;;
8610;SDS011;4343;53.648;10.098;2022-08-19T01:49:36;11.50;;;10.30;;
8610;SDS011;4343;53.648;10.098;2022-08-19T01:52:02;12.15;;;11.05;;
8610;SDS011;4343;53.648;10.098;2022-08-19T01:54:30;13.32;;;11.88;;
8610;SDS011;4343;53.648;10.098;2022-08-19T01:57:07;12.65;;;11.48;;
8610;SDS011;4343;53.648;10.098;2022-08-19T01:59:36;14.05;;;12.38;;
8610;SDS011;4343;53.648;10.098;2022-08-19T02:02:02;14.93;;;12.93;;
8610;SDS011;4343;53.648;10.098;2022-08-19T02:04:31;16.00;;;12.85;;
8610;SDS011;4343;53.648;10.098;2022-08-19T02:06:57;14.02;;;12.32;;
8610;SDS011;4343;53.648;10.098;2022-08-19T02:09:22;14.40;;;12.70;;
8610;SDS011;4343;53.648;10.098;2022-08-19T02:11:48;13.95;;;12.73;;
8610;SDS011;4343;53.648;10.098;2022-08-19T02:14:14;13.70;;;12.27;;
8610;SDS011;4343;53.648;10.098;2022-08-19T02:16:40;14.95;;;13.35;;
8610;SDS011;4343;53.648;10.098;2022-08-19T02:19:06;13.48;;;12.20;;
8610;SDS011;4343;53.648;10.098;2022-08-19T02:21:32;13.13;;;11.77;;
8610;SDS011;4343;53.648;10.098;2022-08-19T02:23:58;13.00;;;11.70;;
8610;SDS011;4343;53.648;10.098;2022-08-19T02:26:24;13.10;;;11.75;;
8610;SDS011;4343;53.648;10.098;2022-08-19T02:28:51;13.38;;;12.07;;
8610;SDS011;4343;53.648;10.098;2022-08-19T02:31:19;13.50;;;12.13;;
8610;SDS011;4343;53.648;10.098;2022-08-19T02:33:46;14.95;;;12.75;;
8610;SDS011;4343;53.648;10.098;2022-08-19T02:36:13;14.77;;;12.75;;
8610;SDS011;4343;53.648;10.098;2022-08-19T02:38:41;15.57;;;12.10;;
8610;SDS011;4343;53.648;10.098;2022-08-19T02:41:11;12.82;;;11.52;;
8610;SDS011;4343;53.648;10.098;2022-08-19T02:43:40;13.05;;;11.75;;
8610;SDS011;4343;53.648;10.098;2022-08-19T02:46:16;15.27;;;11.85;;
8610;SDS011;4343;53.648;10.098;2022-08-19T02:48:48;15.45;;;11.80;;
8610;SDS011;4343;53.648;10.098;2022-08-19T02:51:15;16.48;;;12.75;;
8610;SDS011;4343;53.648;10.098;2022-08-19T02:53:43;13.35;;;11.57;;
8610;SDS011;4343;53.648;10.098;2022-08-19T02:56:09;13.82;;;11.73;;
8610;SDS011;4343;53.648;10.098;2022-08-19T02:58:34;12.23;;;11.02;;
8610;SDS011;4343;53.648;10.098;2022-08-19T03:01:00;13.65;;;12.25;;
8610;SDS011;4343;53.648;10.098;2022-08-19T03:03:26;13.95;;;12.25;;
8610;SDS011;4343;53.648;10.098;2022-08-19T03:05:51;14.82;;;11.35;;
8610;SDS011;4343;53.648;10.098;2022-08-19T03:08:27;12.65;;;11.38;;
8610;SDS011;4343;53.648;10.098;2022-08-19T03:10:52;15.82;;;12.70;;
8610;SDS011;4343;53.648;10.098;2022-08-19T03:13:18;13.38;;;11.60;;
8610;SDS011;4343;53.648;10.098;2022-08-19T03:15:44;12.85;;;11.10;;
8610;SDS011;4343;53.648;10.098;2022-08-19T03:18:12;15.88;;;13.07;;
8610;SDS011;4343;53.648;10.098;2022-08-19T03:20:47;16.38;;;13.32;;
8610;SDS011;4343;53.648;10.098;2022-08-19T03:23:14;16.58;;;12.85;;
8610;SDS011;4343;53.648;10.098;2022-08-19T03:25:42;16.00;;;12.60;;
8610;SDS011;4343;53.648;10.098;2022-08-19T03:28:10;17.17;;;12.82;;
8610;SDS011;4343;53.648;10.098;2022-08-19T03:30:37;15.48;;;10.70;;
8610;SDS011;4343;53.648;10.098;2022-08-19T03:33:05;15.15;;;11.85;;
8610;SDS011;4343;53.648;10.098;2022-08-19T03:35:32;14.75;;;12.25;;
8610;SDS011;4343;53.648;10.098;2022-08-19T03:37:59;12.65;;;11.27;;
8610;SDS011;4343;53.648;10.098;2022-08-19T03:40:25;13.32;;;11.15;;
8610;SDS011;4343;53.648;10.098;2022-08-19T03:42:51;12.18;;;10.48;;
8610;SDS011;4343;53.648;10.098;2022-08-19T03:45:17;12.25;;;10.10;;
8610;SDS011;4343;53.648;10.098;2022-08-19T03:47:42;11.88;;;10.68;;
8610;SDS011;4343;53.648;10.098;2022-08-19T03:50:08;12.65;;;11.45;;
8610;SDS011;4343;53.648;10.098;2022-08-19T03:52:34;14.32;;;11.00;;
8610;SDS011;4343;53.648;10.098;2022-08-19T03:55:00;16.23;;;11.95;;
8610;SDS011;4343;53.648;10.098;2022-08-19T03:57:27;17.60;;;11.85;;
8610;SDS011;4343;53.648;10.098;2022-08-19T03:59:52;12.65;;;11.15;;
8610;SDS011;4343;53.648;10.098;2022-08-19T04:02:18;15.55;;;11.00;;
8610;SDS011;4343;53.648;10.098;2022-08-19T04:04:43;12.95;;;11.52;;
8610;SDS011;4343;53.648;10.098;2022-08-19T04:07:09;12.43;;;10.13;;
8610;SDS011;4343;53.648;10.098;2022-08-19T04:09:37;12.45;;;11.07;;
8610;SDS011;4343;53.648;10.098;2022-08-19T04:12:03;14.00;;;12.18;;
8610;SDS011;4343;53.648;10.098;2022-08-19T04:14:31;13.82;;;11.68;;
8610;SDS011;4343;53.648;10.098;2022-08-19T04:16:57;13.13;;;11.70;;
8610;SDS011;4343;53.648;10.098;2022-08-19T04:19:23;13.30;;;11.90;;
8610;SDS011;4343;53.648;10.098;2022-08-19T04:21:50;12.80;;;11.55;;
8610;SDS011;4343;53.648;10.098;2022-08-19T04:24:18;12.85;;;11.35;;
8610;SDS011;4343;53.648;10.098;2022-08-19T04:26:44;11.55;;;10.45;;
8610;SDS011;4343;53.648;10.098;2022-08-19T04:29:13;12.52;;;11.25;;
8610;SDS011;4343;53.648;10.098;2022-08-19T04:31:41;11.80;;;10.70;;
8610;SDS011;4343;53.648;10.098;2022-08-19T04:34:10;14.02;;;12.15;;
8610;SDS011;4343;53.648;10.098;2022-08-19T04:36:38;14.27;;;12.98;;
8610;SDS011;4343;53.648;10.098;2022-08-19T04:39:11;14.85;;;13.23;;
8610;SDS011;4343;53.648;10.098;2022-08-19T04:41:39;17.88;;;13.02;;
8610;SDS011;4343;53.648;10.098;2022-08-19T04:44:24;15.02;;;13.43;;
8610;SDS011;4343;53.648;10.098;2022-08-19T04:46:50;15.30;;;13.45;;
8610;SDS011;4343;53.648;10.098;2022-08-19T04:49:17;16.70;;;13.82;;
8610;SDS011;4343;53.648;10.098;2022-08-19T04:51:46;17.80;;;14.48;;
8610;SDS011;4343;53.648;10.098;2022-08-19T04:54:13;15.30;;;13.43;;
8610;SDS011;4343;53.648;10.098;2022-08-19T04:56:39;15.98;;;14.32;;
8610;SDS011;4343;53.648;10.098;2022-08-19T04:59:06;17.00;;;14.75;;
8610;SDS011;4343;53.648;10.098;2022-08-19T05:01:33;15.50;;;13.90;;
8610;SDS011;4343;53.648;10.098;2022-08-19T05:04:00;16.45;;;13.68;;
8610;SDS011;4343;53.648;10.098;2022-08-19T05:06:29;16.60;;;14.95;;
8610;SDS011;4343;53.648;10.098;2022-08-19T05:08:58;18.35;;;14.38;;
8610;SDS011;4343;53.648;10.098;2022-08-19T05:11:26;17.55;;;14.80;;
8610;SDS011;4343;53.648;10.098;2022-08-19T05:13:59;16.17;;;14.32;;
8610;SDS011;4343;53.648;10.098;2022-08-19T05:16:26;19.02;;;15.45;;
8610;SDS011;4343;53.648;10.098;2022-08-19T05:18:52;20.08;;;16.88;;
8610;SDS011;4343;53.648;10.098;2022-08-19T05:21:38;18.23;;;14.77;;
8610;SDS011;4343;53.648;10.098;2022-08-19T05:24:24;20.42;;;15.00;;
8610;SDS011;4343;53.648;10.098;2022-08-19T05:26:51;18.65;;;14.32;;
8610;SDS011;4343;53.648;10.098;2022-08-19T05:29:19;19.20;;;15.15;;
8610;SDS011;4343;53.648;10.098;2022-08-19T05:31:46;18.75;;;15.50;;
8610;SDS011;4343;53.648;10.098;2022-08-19T05:34:14;19.55;;;16.23;;
8610;SDS011;4343;53.648;10.098;2022-08-19T05:36:42;16.90;;;14.85;;
8610;SDS011;4343;53.648;10.098;2022-08-19T05:39:10;16.02;;;14.35;;
8610;SDS011;4343;53.648;10.098;2022-08-19T05:41:42;14.75;;;12.90;;
8610;SDS011;4343;53.648;10.098;2022-08-19T05:44:08;14.32;;;12.88;;
8610;SDS011;4343;53.648;10.098;2022-08-19T05:46:35;14.15;;;12.25;;
8610;SDS011;4343;53.648;10.098;2022-08-19T05:49:02;15.65;;;12.13;;
8610;SDS011;4343;53.648;10.098;2022-08-19T05:51:29;14.40;;;12.88;;
8610;SDS011;4343;53.648;10.098;2022-08-19T05:53:54;13.88;;;11.70;;
8610;SDS011;4343;53.648;10.098;2022-08-19T05:56:20;16.40;;;12.57;;
8610;SDS011;4343;53.648;10.098;2022-08-19T05:58:45;14.18;;;12.55;;
8610;SDS011;4343;53.648;10.098;2022-08-19T06:01:13;14.43;;;12.77;;
8610;SDS011;4343;53.648;10.098;2022-08-19T06:03:42;14.90;;;12.45;;
8610;SDS011;4343;53.648;10.098;2022-08-19T06:06:09;14.43;;;12.82;;
8610;SDS011;4343;53.648;10.098;2022-08-19T06:08:36;14.82;;;13.27;;
8610;SDS011;4343;53.648;10.098;2022-08-19T06:11:23;16.77;;;13.00;;
8610;SDS011;4343;53.648;10.098;2022-08-19T06:13:57;14.38;;;12.63;;
8610;SDS011;4343;53.648;10.098;2022-08-19T06:16:25;14.00;;;12.60;;
8610;SDS011;4343;53.648;10.098;2022-08-19T06:18:51;15.25;;;13.27;;
8610;SDS011;4343;53.648;10.098;2022-08-19T06:21:21;13.60;;;12.23;;
8610;SDS011;4343;53.648;10.098;2022-08-19T06:23:50;13.50;;;11.80;;
8610;SDS011;4343;53.648;10.098;2022-08-19T06:26:17;15.45;;;12.48;;
8610;SDS011;4343;53.648;10.098;2022-08-19T06:28:44;15.32;;;13.68;;
8610;SDS011;4343;53.648;10.098;2022-08-19T06:31:14;15.40;;;12.65;;
8610;SDS011;4343;53.648;10.098;2022-08-19T06:33:42;16.85;;;13.85;;
8610;SDS011;4343;53.648;10.098;2022-08-19T06:36:15;14.40;;;13.07;;
8610;SDS011;4343;53.648;10.098;2022-08-19T06:38:42;16.38;;;13.90;;
8610;SDS011;4343;53.648;10.098;2022-08-19T06:41:08;15.55;;;13.27;;
8610;SDS011;4343;53.648;10.098;2022-08-19T06:43:34;14.27;;;12.50;;
8610;SDS011;4343;53.648;10.098;2022-08-19T06:46:01;17.63;;;12.95;;
8610;SDS011;4343;53.648;10.098;2022-08-19T06:48:28;15.50;;;13.52;;
8610;SDS011;4343;53.648;10.098;2022-08-19T06:50:54;15.50;;;13.93;;
8610;SDS011;4343;53.648;10.098;2022-08-19T06:53:20;14.10;;;12.68;;
8610;SDS011;4343;53.648;10.098;2022-08-19T06:55:46;15.05;;;13.43;;
8610;SDS011;4343;53.648;10.098;2022-08-19T06:58:12;13.90;;;12.60;;
8610;SDS011;4343;53.648;10.098;2022-08-19T07:00:38;13.98;;;12.32;;
8610;SDS011;4343;53.648;10.098;2022-08-19T07:03:04;12.95;;;11.52;;
8610;SDS011;4343;53.648;10.098;2022-08-19T07:05:30;13.98;;;12.40;;
8610;SDS011;4343;53.648;10.098;2022-08-19T07:07:56;13.70;;;12.13;;
8610;SDS011;4343;53.648;10.098;2022-08-19T07:10:22;13.02;;;11.57;;
8610;SDS011;4343;53.648;10.098;2022-08-19T07:12:48;12.80;;;11.55;;
8610;SDS011;4343;53.648;10.098;2022-08-19T07:15:15;12.95;;;11.57;;
8610;SDS011;4343;53.648;10.098;2022-08-19T07:17:41;13.48;;;11.45;;
8610;SDS011;4343;53.648;10.098;2022-08-19T07:20:08;12.70;;;11.43;;
8610;SDS011;4343;53.648;10.098;2022-08-19T07:22:35;14.88;;;10.98;;
8610;SDS011;4343;53.648;10.098;2022-08-19T07:25:02;12.57;;;11.27;;
8610;SDS011;4343;53.648;10.098;2022-08-19T07:27:28;11.90;;;10.70;;
8610;SDS011;4343;53.648;10.098;2022-08-19T07:29:54;13.43;;;11.90;;
8610;SDS011;4343;53.648;10.098;2022-08-19T07:32:19;12.60;;;11.35;;
8610;SDS011;4343;53.648;10.098;2022-08-19T07:34:45;15.05;;;12.73;;
8610;SDS011;4343;53.648;10.098;2022-08-19T07:37:10;13.88;;;12.40;;
8610;SDS011;4343;53.648;10.098;2022-08-19T07:39:37;14.98;;;12.38;;
8610;SDS011;4343;53.648;10.098;2022-08-19T07:42:04;15.27;;;13.68;;
8610;SDS011;4343;53.648;10.098;2022-08-19T07:44:33;16.27;;;13.55;;
8610;SDS011;4343;53.648;10.098;2022-08-19T07:46:59;15.05;;;12.70;;
8610;SDS011;4343;53.648;10.098;2022-08-19T07:49:26;15.07;;;12.88;;
8610;SDS011;4343;53.648;10.098;2022-08-19T07:51:53;14.88;;;12.43;;
8610;SDS011;4343;53.648;10.098;2022-08-19T07:54:22;16.13;;;13.18;;
8610;SDS011;4343;53.648;10.098;2022-08-19T07:56:48;14.88;;;12.98;;
8610;SDS011;4343;53.648;10.098;2022-08-19T07:59:15;16.17;;;12.98;;
8610;SDS011;4343;53.648;10.098;2022-08-19T08:01:42;18.00;;;14.32;;
8610;SDS011;4343;53.648;10.098;2022-08-19T08:04:08;17.70;;;14.52;;
8610;SDS011;4343;53.648;10.098;2022-08-19T08:06:52;16.65;;;14.35;;
8610;SDS011;4343;53.648;10.098;2022-08-19T08:09:38;16.83;;;13.23;;
8610;SDS011;4343;53.648;10.098;2022-08-19T08:12:10;20.42;;;15.43;;
8610;SDS011;4343;53.648;10.098;2022-08-19T08:14:40;14.68;;;12.90;;
8610;SDS011;4343;53.648;10.098;2022-08-19T08:17:09;19.20;;;13.95;;
8610;SDS011;4343;53.648;10.098;2022-08-19T08:19:35;17.80;;;14.48;;
8610;SDS011;4343;53.648;10.098;2022-08-19T08:22:02;15.25;;;13.60;;
8610;SDS011;4343;53.648;10.098;2022-08-19T08:24:29;13.95;;;12.55;;
8610;SDS011;4343;53.648;10.098;2022-08-19T08:26:59;18.02;;;13.55;;
8610;SDS011;4343;53.648;10.098;2022-08-19T08:29:29;15.93;;;13.82;;
8610;SDS011;4343;53.648;10.098;2022-08-19T08:31:56;15.68;;;13.13;;
8610;SDS011;4343;53.648;10.098;2022-08-19T08:34:22;18.70;;;13.27;;
8610;SDS011;4343;53.648;10.098;2022-08-19T08:36:48;15.05;;;12.57;;
8610;SDS011;4343;53.648;10.098;2022-08-19T08:39:17;14.30;;;12.80;;
8610;SDS011;4343;53.648;10.098;2022-08-19T08:41:52;16.60;;;12.75;;
8610;SDS011;4343;53.648;10.098;2022-08-19T08:44:50;16.55;;;13.50;;
8610;SDS011;4343;53.648;10.098;2022-08-19T08:47:40;15.32;;;13.10;;
8610;SDS011;4343;53.648;10.098;2022-08-19T08:50:20;17.30;;;13.20;;
8610;SDS011;4343;53.648;10.098;2022-08-19T08:52:50;15.93;;;12.98;;
8610;SDS011;4343;53.648;10.098;2022-08-19T08:55:21;13.27;;;11.70;;
8610;SDS011;4343;53.648;10.098;2022-08-19T08:57:53;15.15;;;12.20;;
8610;SDS011;4343;53.648;10.098;2022-08-19T09:00:31;16.50;;;12.70;;
8610;SDS011;4343;53.648;10.098;2022-08-19T09:03:17;14.98;;;12.80;;
8610;SDS011;4343;53.648;10.098;2022-08-19T09:09:13;16.45;;;12.50;;
8610;SDS011;4343;53.648;10.098;2022-08-19T09:14:27;16.25;;;12.98;;
8610;SDS011;4343;53.648;10.098;2022-08-19T09:17:06;18.13;;;12.70;;
8610;SDS011;4343;53.648;10.098;2022-08-19T09:19:56;17.88;;;13.27;;
8610;SDS011;4343;53.648;10.098;2022-08-19T09:22:22;16.20;;;13.30;;
8610;SDS011;4343;53.648;10.098;2022-08-19T09:24:49;15.27;;;12.82;;
8610;SDS011;4343;53.648;10.098;2022-08-19T09:27:19;18.17;;;12.73;;
8610;SDS011;4343;53.648;10.098;2022-08-19T09:29:46;16.85;;;13.70;;
8610;SDS011;4343;53.648;10.098;2022-08-19T09:32:13;17.50;;;12.40;;
8610;SDS011;4343;53.648;10.098;2022-08-19T09:34:39;13.90;;;12.48;;
8610;SDS011;4343;53.648;10.098;2022-08-19T09:37:05;13.88;;;11.98;;
8610;SDS011;4343;53.648;10.098;2022-08-19T09:39:31;17.35;;;13.07;;
8610;SDS011;4343;53.648;10.098;2022-08-19T09:41:56;14.13;;;12.60;;
8610;SDS011;4343;53.648;10.098;2022-08-19T09:44:22;17.25;;;13.48;;
8610;SDS011;4343;53.648;10.098;2022-08-19T09:46:48;15.07;;;13.55;;
8610;SDS011;4343;53.648;10.098;2022-08-19T09:49:15;14.40;;;12.07;;
8610;SDS011;4343;53.648;10.098;2022-08-19T09:51:42;20.10;;;13.82;;
8610;SDS011;4343;53.648;10.098;2022-08-19T09:54:07;15.02;;;13.20;;
8610;SDS011;4343;53.648;10.098;2022-08-19T09:56:33;14.50;;;13.10;;
8610;SDS011;4343;53.648;10.098;2022-08-19T09:58:59;14.85;;;13.35;;
8610;SDS011;4343;53.648;10.098;2022-08-19T10:01:27;14.93;;;13.43;;
8610;SDS011;4343;53.648;10.098;2022-08-19T10:03:55;16.85;;;12.40;;
8610;SDS011;4343;53.648;10.098;2022-08-19T10:06:23;15.93;;;13.30;;
8610;SDS011;4343;53.648;10.098;2022-08-19T10:08:51;15.70;;;12.93;;
8610;SDS011;4343;53.648;10.098;2022-08-19T10:11:17;18.02;;;14.18;;
8610;SDS011;4343;53.648;10.098;2022-08-19T10:13:44;13.45;;;12.07;;
8610;SDS011;4343;53.648;10.098;2022-08-19T10:16:11;13.60;;;12.30;;
8610;SDS011;4343;53.648;10.098;2022-08-19T10:18:38;13.25;;;11.95;;
8610;SDS011;4343;53.648;10.098;2022-08-19T10:21:09;13.68;;;12.27;;
8610;SDS011;4343;53.648;10.098;2022-08-19T10:23:37;16.02;;;12.80;;
8610;SDS011;4343;53.648;10.098;2022-08-19T10:26:05;14.15;;;12.55;;
8610;SDS011;4343;53.648;10.098;2022-08-19T10:28:32;16.50;;;11.75;;
8610;SDS011;4343;53.648;10.098;2022-08-19T10:31:02;19.35;;;13.00;;
8610;SDS011;4343;53.648;10.098;2022-08-19T10:33:32;13.02;;;11.75;;
8610;SDS011;4343;53.648;10.098;2022-08-19T10:35:59;12.65;;;11.00;;
8610;SDS011;4343;53.648;10.098;2022-08-19T10:38:30;11.88;;;10.77;;
8610;SDS011;4343;53.648;10.098;2022-08-19T10:40:56;13.73;;;12.30;;
8610;SDS011;4343;53.648;10.098;2022-08-19T10:43:22;12.73;;;11.52;;
8610;SDS011;4343;53.648;10.098;2022-08-19T10:45:51;16.58;;;12.65;;
8610;SDS011;4343;53.648;10.098;2022-08-19T10:48:19;14.30;;;12.13;;
8610;SDS011;4343;53.648;10.098;2022-08-19T10:50:45;12.13;;;10.93;;
8610;SDS011;4343;53.648;10.098;2022-08-19T10:53:29;13.02;;;11.65;;
8610;SDS011;4343;53.648;10.098;2022-08-19T10:55:55;12.30;;;11.10;;
8610;SDS011;4343;53.648;10.098;2022-08-19T10:58:39;13.90;;;10.95;;
8610;SDS011;4343;53.648;10.098;2022-08-19T11:01:06;12.90;;;11.55;;
8610;SDS011;4343;53.648;10.098;2022-08-19T11:03:32;11.57;;;10.52;;
8610;SDS011;4343;53.648;10.098;2022-08-19T11:06:01;13.68;;;11.45;;
8610;SDS011;4343;53.648;10.098;2022-08-19T11:08:29;14.23;;;11.88;;
8610;SDS011;4343;53.648;10.098;2022-08-19T11:10:57;15.98;;;11.60;;
8610;SDS011;4343;53.648;10.098;2022-08-19T11:13:26;12.20;;;11.05;;
8610;SDS011;4343;53.648;10.098;2022-08-19T11:15:57;10.55;;;9.65;;
8610;SDS011;4343;53.648;10.098;2022-08-19T11:18:28;11.65;;;10.35;;
8610;SDS011;4343;53.648;10.098;2022-08-19T11:20:53;12.30;;;11.20;;
8610;SDS011;4343;53.648;10.098;2022-08-19T11:23:19;12.00;;;10.82;;
8610;SDS011;4343;53.648;10.098;2022-08-19T11:25:45;10.65;;;9.63;;
8610;SDS011;4343;53.648;10.098;2022-08-19T11:28:11;12.40;;;9.68;;
8610;SDS011;4343;53.648;10.098;2022-08-19T11:30:38;10.43;;;9.48;;
8610;SDS011;4343;53.648;10.098;2022-08-19T11:33:03;9.93;;;9.13;;
8610;SDS011;4343;53.648;10.098;2022-08-19T11:35:29;11.18;;;10.02;;
8610;SDS011;4343;53.648;10.098;2022-08-19T11:37:55;11.35;;;10.25;;
8610;SDS011;4343;53.648;10.098;2022-08-19T11:40:26;10.43;;;9.43;;
8610;SDS011;4343;53.648;10.098;2022-08-19T11:42:52;11.80;;;10.55;;
8610;SDS011;4343;53.648;10.098;2022-08-19T11:45:22;11.63;;;10.43;;
8610;SDS011;4343;53.648;10.098;2022-08-19T11:47:48;10.90;;;9.80;;
8610;SDS011;4343;53.648;10.098;2022-08-19T11:50:14;10.32;;;9.32;;
8610;SDS011;4343;53.648;10.098;2022-08-19T11:52:40;10.70;;;9.55;;
8610;SDS011;4343;53.648;10.098;2022-08-19T11:55:06;11.43;;;10.38;;
8610;SDS011;4343;53.648;10.098;2022-08-19T11:57:32;11.18;;;10.27;;
8610;SDS011;4343;53.648;10.098;2022-08-19T11:59:58;10.88;;;9.95;;
8610;SDS011;4343;53.648;10.098;2022-08-19T12:02:23;9.77;;;9.02;;
8610;SDS011;4343;53.648;10.098;2022-08-19T12:04:49;10.38;;;9.55;;
8610;SDS011;4343;53.648;10.098;2022-08-19T12:07:15;10.57;;;9.60;;
8610;SDS011;4343;53.648;10.098;2022-08-19T12:09:40;10.80;;;9.70;;
8610;SDS011;4343;53.648;10.098;2022-08-19T12:12:06;10.38;;;9.52;;
8610;SDS011;4343;53.648;10.098;2022-08-19T12:14:33;9.85;;;8.95;;
8610;SDS011;4343;53.648;10.098;2022-08-19T12:16:59;9.70;;;8.70;;
8610;SDS011;4343;53.648;10.098;2022-08-19T12:19:25;8.68;;;7.97;;
8610;SDS011;4343;53.648;10.098;2022-08-19T12:21:51;9.07;;;8.32;;
8610;SDS011;4343;53.648;10.098;2022-08-19T12:24:17;8.18;;;7.60;;
8610;SDS011;4343;53.648;10.098;2022-08-19T12:26:47;8.85;;;8.15;;
8610;SDS011;4343;53.648;10.098;2022-08-19T12:29:13;9.10;;;8.40;;
8610;SDS011;4343;53.648;10.098;2022-08-19T12:31:39;8.75;;;8.13;;
8610;SDS011;4343;53.648;10.098;2022-08-19T12:34:05;8.65;;;7.82;;
8610;SDS011;4343;53.648;10.098;2022-08-19T12:36:31;8.65;;;7.93;;
8610;SDS011;4343;53.648;10.098;2022-08-19T12:38:57;8.15;;;7.55;;
8610;SDS011;4343;53.648;10.098;2022-08-19T12:41:24;8.60;;;7.93;;
8610;SDS011;4343;53.648;10.098;2022-08-19T12:43:50;7.57;;;6.97;;
8610;SDS011;4343;53.648;10.098;2022-08-19T12:46:16;7.65;;;7.15;;
8610;SDS011;4343;53.648;10.098;2022-08-19T12:48:43;8.13;;;7.53;;
8610;SDS011;4343;53.648;10.098;2022-08-19T12:51:11;8.65;;;7.95;;
8610;SDS011;4343;53.648;10.098;2022-08-19T12:53:38;9.52;;;8.80;;
8610;SDS011;4343;53.648;10.098;2022-08-19T12:56:05;9.23;;;8.32;;
8610;SDS011;4343;53.648;10.098;2022-08-19T12:58:31;8.88;;;8.07;;
8610;SDS011;4343;53.648;10.098;2022-08-19T13:00:59;7.55;;;7.05;;
8610;SDS011;4343;53.648;10.098;2022-08-19T13:03:30;8.30;;;7.47;;
8610;SDS011;4343;53.648;10.098;2022-08-19T13:05:56;9.07;;;8.32;;
8610;SDS011;4343;53.648;10.098;2022-08-19T13:08:21;8.48;;;7.80;;
8610;SDS011;4343;53.648;10.098;2022-08-19T13:10:47;9.30;;;8.60;;
8610;SDS011;4343;53.648;10.098;2022-08-19T13:13:13;9.02;;;8.32;;
8610;SDS011;4343;53.648;10.098;2022-08-19T13:15:39;8.05;;;7.45;;
8610;SDS011;4343;53.648;10.098;2022-08-19T13:18:07;10.07;;;9.13;;
8610;SDS011;4343;53.648;10.098;2022-08-19T13:20:34;9.02;;;8.32;;
8610;SDS011;4343;53.648;10.098;2022-08-19T13:23:00;10.35;;;9.35;;
8610;SDS011;4343;53.648;10.098;2022-08-19T13:25:26;9.73;;;9.00;;
8610;SDS011;4343;53.648;10.098;2022-08-19T13:27:52;10.05;;;9.25;;
8610;SDS011;4343;53.648;10.098;2022-08-19T13:30:18;8.65;;;8.05;;
8610;SDS011;4343;53.648;10.098;2022-08-19T13:33:03;9.38;;;8.68;;
8610;SDS011;4343;53.648;10.098;2022-08-19T13:35:36;9.18;;;8.38;;
8610;SDS011;4343;53.648;10.098;2022-08-19T13:38:13;9.52;;;8.73;;
8610;SDS011;4343;53.648;10.098;2022-08-19T13:40:41;10.02;;;9.20;;
8610;SDS011;4343;53.648;10.098;2022-08-19T13:43:07;9.27;;;8.50;;
8610;SDS011;4343;53.648;10.098;2022-08-19T13:45:34;9.38;;;8.77;;
8610;SDS011;4343;53.648;10.098;2022-08-19T13:48:00;9.68;;;8.93;;
8610;SDS011;4343;53.648;10.098;2022-08-19T13:50:31;8.40;;;7.80;;
8610;SDS011;4343;53.648;10.098;2022-08-19T13:52:57;7.70;;;7.20;;
8610;SDS011;4343;53.648;10.098;2022-08-19T13:55:24;8.05;;;7.50;;
8610;SDS011;4343;53.648;10.098;2022-08-19T13:57:51;7.50;;;7.00;;
8610;SDS011;4343;53.648;10.098;2022-08-19T14:00:18;7.95;;;7.25;;
8610;SDS011;4343;53.648;10.098;2022-08-19T14:02:44;8.23;;;7.72;;
8610;SDS011;4343;53.648;10.098;2022-08-19T14:05:12;7.80;;;7.25;;
8610;SDS011;4343;53.648;10.098;2022-08-19T14:07:39;7.72;;;7.22;;
8610;SDS011;4343;53.648;10.098;2022-08-19T14:10:06;7.30;;;6.80;;
8610;SDS011;4343;53.648;10.098;2022-08-19T14:12:34;7.97;;;7.28;;
8610;SDS011;4343;53.648;10.098;2022-08-19T14:15:00;7.75;;;7.25;;
8610;SDS011;4343;53.648;10.098;2022-08-19T14:17:27;7.07;;;6.68;;
8610;SDS011;4343;53.648;10.098;2022-08-19T14:19:59;7.28;;;6.82;;
8610;SDS011;4343;53.648;10.098;2022-08-19T14:22:33;7.35;;;6.82;;
8610;SDS011;4343;53.648;10.098;2022-08-19T14:24:59;7.13;;;6.63;;
8610;SDS011;4343;53.648;10.098;2022-08-19T14:27:25;7.15;;;6.68;;
8610;SDS011;4343;53.648;10.098;2022-08-19T14:29:51;7.70;;;7.20;;
8610;SDS011;4343;53.648;10.098;2022-08-19T14:32:17;7.63;;;7.15;;
8610;SDS011;4343;53.648;10.098;2022-08-19T14:34:43;7.25;;;6.75;;
8610;SDS011;4343;53.648;10.098;2022-08-19T14:37:13;6.75;;;6.32;;
8610;SDS011;4343;53.648;10.098;2022-08-19T14:39:39;7.55;;;7.05;;
8610;SDS011;4343;53.648;10.098;2022-08-19T14:42:07;6.95;;;6.45;;
8610;SDS011;4343;53.648;10.098;2022-08-19T14:44:34;6.95;;;6.55;;
8610;SDS011;4343;53.648;10.098;2022-08-19T14:47:00;6.78;;;6.38;;
8610;SDS011;4343;53.648;10.098;2022-08-19T14:49:25;7.13;;;6.72;;
8610;SDS011;4343;53.648;10.098;2022-08-19T14:51:51;7.13;;;6.63;;
8610;SDS011;4343;53.648;10.098;2022-08-19T14:54:17;7.50;;;7.00;;